Time;durP1;ratioP1;P1;durP2;ratioP2;P2;SDS_P1;SDS_P2;PMS_P1;PMS_P2;Temp;Humidity;BMP_temperature;BMP_pressure;BME280_temperature;BME280_humidity;BME280_pressure;Samples;Min_cycle;Max_cycle;Signal;HPM_P1;HPM_P2
2022/03/04 00:01:57;;;;;;;14.83;10.50;;;;;;;2.73;51.84;152067.28;5069865;28;20445;-80
2022/03/04 00:04:37;;;;;;;16.00;10.80;;;;;;;2.72;51.87;152064.75;5067667;28;20449;-80
2022/03/04 00:07:14;;;;;;;14.50;10.87;;;;;;;2.69;52.01;152055.72;5085611;28;20487;-80
2022/03/04 00:09:49;;;;;;;16.97;10.80;;;;;;;2.65;52.49;152046.69;5069297;28;20598;-80
2022/03/04 00:12:25;;;;;;;17.93;11.83;;;;;;;2.68;51.92;152053.13;5067953;28;20542;-80
2022/03/04 00:15:00;;;;;;;16.13;11.50;;;;;;;2.59;52.78;152031.28;5081745;28;20471;-80
2022/03/04 00:17:36;;;;;;;14.13;10.30;;;;;;;2.54;52.45;152017.16;5087341;28;20437;-80
2022/03/04 00:20:12;;;;;;;18.63;12.50;;;;;;;2.50;53.87;152008.13;5069043;28;20448;-81
2022/03/04 00:22:48;;;;;;;16.57;12.40;;;;;;;2.45;53.30;151995.28;5055036;28;20972;-80
2022/03/04 00:25:24;;;;;;;20.40;12.67;;;;;;;2.44;53.46;151993.97;5054423;28;20452;-80
2022/03/04 00:28:00;;;;;;;14.20;10.50;;;;;;;2.39;53.99;151981.13;5053638;28;20951;-80
2022/03/04 00:30:35;;;;;;;32.53;19.87;;;;;;;2.41;53.68;151986.25;5067432;28;20444;-80
2022/03/04 00:33:11;;;;;;;16.40;11.33;;;;;;;2.38;54.25;151977.28;5085100;28;20462;-80
2022/03/04 00:35:46;;;;;;;17.70;10.80;;;;;;;2.26;54.80;151947.69;5068656;28;20487;-80
2022/03/04 00:38:23;;;;;;;13.97;10.70;;;;;;;2.16;55.78;151921.97;5069643;28;20444;-80
2022/03/04 00:40:59;;;;;;;19.60;11.37;;;;;;;2.07;56.95;151898.81;5070526;28;20528;-79
2022/03/04 00:43:35;;;;;;;18.43;10.43;;;;;;;2.01;56.85;151883.44;5068125;28;20460;-79
2022/03/04 00:46:11;;;;;;;14.33;11.30;;;;;;;1.97;55.71;151873.13;5080719;28;20447;-79
2022/03/04 00:48:47;;;;;;;15.90;10.63;;;;;;;1.99;56.07;151878.25;5084112;28;20508;-79
2022/03/04 00:51:23;;;;;;;19.97;12.03;;;;;;;1.98;57.03;151875.72;5084268;28;20444;-79
2022/03/04 00:53:59;;;;;;;16.73;10.90;;;;;;;1.85;57.64;151842.28;5066241;28;20548;-79
2022/03/04 00:56:35;;;;;;;15.63;11.03;;;;;;;1.80;57.06;151829.44;5071449;28;20436;-79
2022/03/04 00:59:11;;;;;;;13.03;10.13;;;;;;;1.80;57.94;151829.44;5069786;28;20443;-79
2022/03/04 01:01:46;;;;;;;15.97;11.33;;;;;;;1.75;57.10;151816.56;5068351;28;20438;-78
2022/03/04 01:04:22;;;;;;;14.57;10.67;;;;;;;1.69;57.63;151801.16;5052845;28;20447;-78
2022/03/04 01:06:57;;;;;;;20.50;12.13;;;;;;;1.62;56.92;151783.13;5051255;28;20966;-79
2022/03/04 01:09:34;;;;;;;19.70;12.43;;;;;;;1.57;57.47;151770.28;5065934;28;20568;-79
2022/03/04 01:12:10;;;;;;;15.40;12.27;;;;;;;1.48;59.00;151747.19;5052025;28;20544;-79
2022/03/04 01:14:47;;;;;;;16.90;12.00;;;;;;;1.35;60.06;151715.03;5066972;28;20547;-79
2022/03/04 01:17:23;;;;;;;15.17;11.20;;;;;;;1.32;59.81;151706.06;5066967;28;20452;-79
2022/03/04 01:19:58;;;;;;;17.07;12.27;;;;;;;1.33;59.41;151708.63;5066019;28;21004;-79
2022/03/04 01:22:34;;;;;;;15.03;10.60;;;;;;;1.33;59.36;151709.91;5067747;28;20443;-79
2022/03/04 01:25:11;;;;;;;15.10;11.30;;;;;;;1.28;58.64;151695.78;5067410;28;21009;-79
2022/03/04 01:27:47;;;;;;;16.50;10.30;;;;;;;1.26;58.42;151690.66;5079614;28;21001;-79
2022/03/04 01:30:23;;;;;;;15.40;11.93;;;;;;;1.26;58.10;151690.66;5061119;28;20530;-79
2022/03/04 01:32:58;;;;;;;16.60;11.90;;;;;;;1.31;58.07;151703.50;5077971;28;20455;-79
2022/03/04 01:35:36;;;;;;;15.83;11.00;;;;;;;1.33;57.72;151708.63;5049171;28;20542;-79
2022/03/04 01:38:11;;;;;;;15.67;11.00;;;;;;;1.32;56.79;151706.06;5066574;28;20460;-79
2022/03/04 01:40:49;;;;;;;16.47;11.20;;;;;;;1.35;56.73;151713.78;5050290;28;20454;-79
2022/03/04 01:43:24;;;;;;;14.10;9.73;;;;;;;1.62;54.56;151784.44;5053459;28;20877;-78
2022/03/04 01:46:10;;;;;;;16.43;12.07;;;;;;;1.48;55.99;151748.50;5079824;28;20455;-79
2022/03/04 01:48:47;;;;;;;16.53;11.00;;;;;;;1.36;56.39;151716.31;5050383;28;20490;-79
2022/03/04 01:51:22;;;;;;;16.63;11.70;;;;;;;1.33;55.95;151708.63;5070876;28;20460;-79
2022/03/04 01:53:58;;;;;;;16.50;11.63;;;;;;;1.27;56.59;151693.22;5069652;28;20463;-79
2022/03/04 01:56:35;;;;;;;14.63;10.93;;;;;;;1.20;57.40;151677.81;5067517;28;20753;-79
2022/03/04 01:59:10;;;;;;;17.63;11.43;;;;;;;1.15;57.49;151664.97;5051251;28;20523;-79
2022/03/04 02:01:46;;;;;;;16.10;11.83;;;;;;;1.16;57.06;151666.25;5069372;28;20440;-79
2022/03/04 02:04:22;;;;;;;15.93;12.33;;;;;;;1.11;57.81;151654.66;5085033;28;20464;-79
2022/03/04 02:06:57;;;;;;;16.67;11.90;;;;;;;1.01;57.96;151628.97;5069159;28;20447;-78
2022/03/04 02:09:33;;;;;;;14.33;10.80;;;;;;;0.96;58.03;151616.16;5058233;28;20813;-78
2022/03/04 02:12:10;;;;;;;15.73;11.37;;;;;;;0.95;58.95;151613.59;5066836;28;20453;-78
2022/03/04 02:14:45;;;;;;;15.70;11.53;;;;;;;0.89;59.16;151596.88;5050977;28;20455;-78
2022/03/04 02:17:21;;;;;;;14.80;10.93;;;;;;;0.75;60.53;151562.22;5053201;28;20447;-78
2022/03/04 02:19:57;;;;;;;15.43;10.60;;;;;;;0.88;58.98;151595.59;5077163;28;20441;-78
2022/03/04 02:22:34;;;;;;;18.80;11.80;;;;;;;0.79;59.11;151572.50;5043120;28;20478;-78
2022/03/04 02:25:10;;;;;;;15.57;11.60;;;;;;;1.11;57.31;151654.66;5045940;28;20459;-78
2022/03/04 02:27:45;;;;;;;14.43;11.03;;;;;;;1.15;57.55;151663.66;5055036;28;20526;-78
2022/03/04 02:30:21;;;;;;;16.97;12.00;;;;;;;1.12;56.72;151657.25;5046927;28;20466;-78
2022/03/04 02:32:57;;;;;;;14.57;11.10;;;;;;;1.14;56.16;151662.38;5063514;28;20454;-78
2022/03/04 02:35:33;;;;;;;17.70;11.47;;;;;;;1.06;56.58;151640.56;5052152;28;20443;-78
2022/03/04 02:38:10;;;;;;;14.97;11.40;;;;;;;1.11;56.07;151654.66;5067220;28;20451;-79
2022/03/04 02:40:46;;;;;;;16.40;11.77;;;;;;;1.12;56.04;151655.97;5066421;28;20446;-78
2022/03/04 02:43:21;;;;;;;17.57;11.87;;;;;;;1.18;55.98;151672.69;5084339;28;20450;-78
2022/03/04 02:45:56;;;;;;;18.13;12.00;;;;;;;1.16;56.01;151667.56;5046807;28;20541;-78
2022/03/04 02:48:32;;;;;;;16.50;12.00;;;;;;;1.18;56.04;151672.69;5085716;28;20450;-78
2022/03/04 02:51:08;;;;;;;17.47;11.20;;;;;;;1.04;56.49;151636.69;5051235;28;20465;-78
2022/03/04 02:53:44;;;;;;;15.57;11.17;;;;;;;0.99;55.99;151623.84;5049776;28;20804;-78
2022/03/04 02:56:20;;;;;;;20.27;11.90;;;;;;;0.96;56.80;151614.84;5064620;28;20456;-78
2022/03/04 02:58:55;;;;;;;18.00;11.03;;;;;;;0.92;56.06;151604.59;5067165;28;20453;-78
2022/03/04 03:01:31;;;;;;;17.17;12.43;;;;;;;1.00;55.89;151625.16;5049661;28;20445;-78
2022/03/04 03:04:07;;;;;;;16.33;12.13;;;;;;;0.99;56.32;151623.84;5064549;28;20936;-78
2022/03/04 03:06:43;;;;;;;19.50;12.33;;;;;;;1.15;55.31;151664.97;5066246;28;20445;-78
2022/03/04 03:09:20;;;;;;;16.90;11.87;;;;;;;1.07;55.89;151644.41;5063806;28;20454;-78
2022/03/04 03:11:56;;;;;;;19.43;12.80;;;;;;;1.15;55.18;151664.97;5071683;28;20520;-78
2022/03/04 03:14:31;;;;;;;17.23;11.30;;;;;;;1.30;54.42;151700.94;5060776;28;20668;-77
2022/03/04 03:17:07;;;;;;;18.10;12.73;;;;;;;1.26;54.78;151690.66;5051793;28;20445;-79
2022/03/04 03:19:43;;;;;;;17.10;11.30;;;;;;;1.03;55.85;151634.09;5070251;28;20445;-79
2022/03/04 03:22:19;;;;;;;17.17;11.80;;;;;;;1.08;55.11;151645.69;5054644;28;21051;-79
2022/03/04 03:24:56;;;;;;;19.47;12.63;;;;;;;0.97;56.18;151618.72;5071539;28;20470;-79
2022/03/04 03:27:32;;;;;;;19.83;11.80;;;;;;;1.01;55.66;151628.97;5056167;28;20449;-79
2022/03/04 03:30:09;;;;;;;20.33;13.00;;;;;;;0.90;56.37;151599.47;5072548;28;20467;-79
2022/03/04 03:32:44;;;;;;;18.03;12.97;;;;;;;0.92;56.02;151605.91;5053110;28;20445;-79
2022/03/04 03:35:20;;;;;;;15.83;11.20;;;;;;;0.89;56.43;151596.88;5071038;28;20429;-79
2022/03/04 03:37:55;;;;;;;17.60;12.30;;;;;;;0.87;56.65;151591.75;5071756;28;20442;-79
2022/03/04 03:40:32;;;;;;;17.80;12.77;;;;;;;0.76;57.52;151563.50;5070078;28;22407;-79
2022/03/04 03:43:08;;;;;;;18.30;13.23;;;;;;;0.65;57.62;151536.53;5069829;28;20452;-79
2022/03/04 03:45:44;;;;;;;16.40;11.70;;;;;;;0.63;57.58;151531.41;5071685;28;20485;-79
2022/03/04 03:48:19;;;;;;;17.50;12.50;;;;;;;0.55;59.22;151512.16;5067865;28;20500;-79
2022/03/04 03:50:55;;;;;;;18.50;12.77;;;;;;;0.49;58.59;151496.75;5073115;28;20480;-79
2022/03/04 03:53:30;;;;;;;17.93;13.60;;;;;;;0.31;60.62;151449.25;5068215;28;20452;-79
2022/03/04 03:56:08;;;;;;;23.23;14.93;;;;;;;0.29;60.05;151445.38;5060992;28;20441;-79
2022/03/04 03:58:43;;;;;;;18.93;13.00;;;;;;;0.21;60.02;151423.59;5072550;28;20449;-79
2022/03/04 04:01:19;;;;;;;20.33;14.27;;;;;;;0.09;61.33;151392.75;5054878;28;20959;-79
2022/03/04 04:03:55;;;;;;;21.10;13.00;;;;;;;0.13;61.55;151403.06;5068422;28;20544;-79
2022/03/04 04:06:30;;;;;;;17.37;12.87;;;;;;;0.22;60.58;151427.41;5054719;28;20959;-79
2022/03/04 04:09:08;;;;;;;18.13;12.60;;;;;;;0.34;59.36;151456.97;5069209;28;20523;-79
2022/03/04 04:11:45;;;;;;;18.27;12.63;;;;;;;0.40;59.52;151472.31;5070348;28;20490;-79
2022/03/04 04:14:20;;;;;;;16.97;12.73;;;;;;;0.36;59.33;151462.09;5071539;28;20467;-79
2022/03/04 04:16:56;;;;;;;19.30;12.03;;;;;;;0.37;59.64;151465.91;5053528;28;20436;-79
2022/03/04 04:19:32;;;;;;;17.60;13.00;;;;;;;0.29;60.48;151444.13;5049480;28;20442;-79
2022/03/04 04:22:08;;;;;;;18.23;13.30;;;;;;;0.26;60.73;151436.41;5068911;28;20452;-79
2022/03/04 04:24:43;;;;;;;20.17;12.70;;;;;;;0.22;61.35;151427.41;5050934;28;20520;-79
2022/03/04 04:27:20;;;;;;;18.63;12.40;;;;;;;0.28;60.33;151441.53;5070714;28;20480;-79
2022/03/04 04:29:56;;;;;;;19.20;12.60;;;;;;;0.27;60.74;151440.25;5067836;28;20451;-79
2022/03/04 04:32:32;;;;;;;18.23;13.13;;;;;;;0.24;60.76;151431.28;5068038;28;20479;-79
2022/03/04 04:35:08;;;;;;;21.23;13.07;;;;;;;0.27;59.61;151438.97;5064636;28;20834;-79
2022/03/04 04:37:44;;;;;;;18.00;12.83;;;;;;;0.31;60.02;151449.25;5068795;28;20442;-78
2022/03/04 04:40:20;;;;;;;20.03;13.37;;;;;;;0.41;60.55;151474.91;5059257;28;20473;-79
2022/03/04 04:42:57;;;;;;;18.73;12.20;;;;;;;0.47;59.61;151490.34;5068241;28;20501;-79
2022/03/04 04:45:32;;;;;;;18.10;12.43;;;;;;;0.43;59.91;151481.31;5088258;28;20523;-79
2022/03/04 04:48:07;;;;;;;15.57;11.77;;;;;;;0.34;60.18;151458.25;5051167;28;20872;-79
2022/03/04 04:50:43;;;;;;;16.13;11.70;;;;;;;0.20;60.84;151421.00;5081054;28;20512;-78
2022/03/04 04:53:19;;;;;;;20.10;13.27;;;;;;;0.20;61.46;151421.00;5068509;28;20854;-79
2022/03/04 04:55:54;;;;;;;17.37;12.13;;;;;;;0.15;61.53;151408.19;5084862;28;20446;-78
2022/03/04 04:58:31;;;;;;;20.27;13.50;;;;;;;0.23;60.85;151430.00;5080116;28;20451;-78
2022/03/04 05:01:07;;;;;;;20.10;12.50;;;;;;;0.23;61.84;151430.00;5045276;28;20471;-79
2022/03/04 05:03:43;;;;;;;17.63;12.60;;;;;;;0.32;61.35;151451.84;5070172;28;20456;-78
2022/03/04 05:06:19;;;;;;;21.60;13.97;;;;;;;0.34;61.31;151456.97;5085138;28;20448;-78
2022/03/04 05:08:54;;;;;;;15.63;12.20;;;;;;;0.38;61.20;151467.19;5066471;28;20448;-78
2022/03/04 05:11:30;;;;;;;17.80;11.97;;;;;;;0.39;61.46;151469.78;5064119;28;20465;-78
2022/03/04 05:14:07;;;;;;;16.57;12.33;;;;;;;0.42;60.30;151477.50;5052247;28;20458;-79
2022/03/04 05:16:42;;;;;;;18.80;12.60;;;;;;;0.41;60.79;151474.91;5067508;28;20473;-78
2022/03/04 05:19:18;;;;;;;21.90;13.13;;;;;;;0.39;60.04;151469.78;5084793;28;20954;-78
2022/03/04 05:21:53;;;;;;;18.27;12.53;;;;;;;0.41;60.53;151474.91;5053373;28;20447;-79
2022/03/04 05:24:29;;;;;;;18.97;12.77;;;;;;;0.41;60.68;151476.22;5068886;28;20807;-78
2022/03/04 05:27:05;;;;;;;19.17;12.43;;;;;;;0.38;60.76;151468.50;5084299;28;20932;-79
2022/03/04 05:29:42;;;;;;;21.80;13.47;;;;;;;0.30;60.64;151446.66;5046525;28;20462;-78
2022/03/04 05:32:17;;;;;;;16.80;11.97;;;;;;;0.32;60.74;151453.06;5048527;28;20465;-78
2022/03/04 05:34:53;;;;;;;18.10;13.13;;;;;;;0.36;60.40;151462.09;5066952;28;20464;-78
2022/03/04 05:37:28;;;;;;;20.23;13.47;;;;;;;0.39;60.03;151469.78;5070199;28;20438;-78
2022/03/04 05:40:05;;;;;;;20.27;12.83;;;;;;;0.39;60.68;151469.78;5066535;28;20459;-78
2022/03/04 05:42:41;;;;;;;20.23;12.17;;;;;;;0.35;60.29;151459.50;5086225;28;20462;-79
2022/03/04 05:45:18;;;;;;;21.97;13.20;;;;;;;0.35;60.27;151460.78;5048200;28;20459;-79
2022/03/04 05:47:54;;;;;;;19.00;12.97;;;;;;;0.35;60.88;151459.50;5069511;28;20470;-78
2022/03/04 05:50:30;;;;;;;19.57;13.33;;;;;;;0.38;61.11;151468.50;5066245;28;20495;-78
2022/03/04 05:53:05;;;;;;;15.93;11.60;;;;;;;0.35;60.73;151459.50;5083223;28;20567;-78
2022/03/04 05:55:41;;;;;;;16.63;13.37;;;;;;;0.31;61.13;151449.25;5064745;28;20452;-78
2022/03/04 05:58:17;;;;;;;18.33;12.37;;;;;;;0.29;61.07;151445.38;5065024;28;20448;-78
2022/03/04 06:00:54;;;;;;;18.33;12.57;;;;;;;0.34;60.71;151456.97;5062751;28;20449;-79
2022/03/04 06:03:30;;;;;;;20.27;13.10;;;;;;;0.31;61.23;151449.25;5068245;28;20474;-78
2022/03/04 06:06:06;;;;;;;17.17;12.70;;;;;;;0.24;62.54;151431.28;5064969;28;20457;-78
2022/03/04 06:08:42;;;;;;;17.33;12.67;;;;;;;0.16;61.79;151410.75;5066324;28;20455;-78
2022/03/04 06:11:18;;;;;;;19.27;13.13;;;;;;;0.14;62.27;151405.59;5079038;28;20467;-78
2022/03/04 06:13:54;;;;;;;19.23;13.57;;;;;;;0.11;62.35;151399.16;5064160;28;20552;-78
2022/03/04 06:16:31;;;;;;;17.93;12.00;;;;;;;0.08;62.98;151390.22;5049522;28;20808;-78
2022/03/04 06:19:08;;;;;;;29.47;18.70;;;;;;;0.05;63.04;151382.50;5064879;28;20483;-78
2022/03/04 06:21:44;;;;;;;36.53;22.87;;;;;;;-0.01;64.25;151369.69;5065704;28;20605;-79
2022/03/04 06:24:20;;;;;;;27.53;17.63;;;;;;;-0.03;64.47;151364.53;5083585;28;20448;-78
2022/03/04 06:26:55;;;;;;;26.67;16.70;;;;;;;-0.04;63.91;151360.69;5067110;28;20542;-78
2022/03/04 06:29:31;;;;;;;23.57;16.93;;;;;;;-0.07;64.65;151352.97;5069076;28;20538;-79
2022/03/04 06:32:09;;;;;;;21.83;15.30;;;;;;;-0.08;64.79;151351.69;5068462;28;20464;-78
2022/03/04 06:34:45;;;;;;;23.20;15.10;;;;;;;0.09;64.52;151392.75;5064815;28;20460;-79
2022/03/04 06:37:21;;;;;;;25.57;16.33;;;;;;;0.20;64.75;151422.28;5064079;28;20445;-79
2022/03/04 06:39:56;;;;;;;24.17;15.07;;;;;;;0.40;63.42;151472.31;5049009;28;20464;-79
2022/03/04 06:42:32;;;;;;;26.97;14.60;;;;;;;0.60;62.05;151525.00;5083559;28;20430;-79
2022/03/04 06:45:08;;;;;;;22.70;15.13;;;;;;;0.84;61.49;151585.34;5084291;28;20439;-79
2022/03/04 06:47:45;;;;;;;23.53;15.00;;;;;;;1.06;60.29;151640.56;5066876;28;20444;-79
2022/03/04 06:50:20;;;;;;;20.93;14.97;;;;;;;1.22;61.02;151682.94;5068390;28;20575;-78
2022/03/04 06:52:56;;;;;;;19.70;14.00;;;;;;;1.37;59.72;151718.91;5087826;28;20445;-79
2022/03/04 06:55:33;;;;;;;23.00;15.10;;;;;;;1.59;58.78;151776.72;5069695;28;20541;-79
2022/03/04 06:58:08;;;;;;;21.90;15.03;;;;;;;1.70;58.68;151803.69;5088761;28;20945;-79
2022/03/04 07:00:45;;;;;;;21.03;14.67;;;;;;;1.89;59.14;151852.56;5068742;28;20809;-79
2022/03/04 07:03:23;;;;;;;24.03;14.80;;;;;;;2.07;59.17;151898.81;5056874;28;20466;-79
2022/03/04 07:05:59;;;;;;;22.30;15.50;;;;;;;2.19;57.27;151929.72;5068445;28;20951;-77
2022/03/04 07:08:37;;;;;;;21.07;14.00;;;;;;;2.32;56.93;151963.13;5068703;28;20517;-78
2022/03/04 07:11:13;;;;;;;20.63;14.50;;;;;;;2.47;56.45;152001.69;5051827;28;20462;-78
2022/03/04 07:13:48;;;;;;;25.27;14.70;;;;;;;2.69;56.65;152055.72;5069621;28;20483;-79
2022/03/04 07:16:24;;;;;;;23.13;15.10;;;;;;;2.82;55.99;152090.44;5062992;28;20447;-79
2022/03/04 07:19:01;;;;;;;20.93;14.77;;;;;;;2.93;56.44;152117.47;5055162;28;20444;-79
2022/03/04 07:21:37;;;;;;;20.80;15.23;;;;;;;3.00;55.18;152136.75;5071998;28;20440;-79
2022/03/04 07:24:12;;;;;;;21.13;15.50;;;;;;;3.08;54.92;152157.34;5070778;28;20457;-79
2022/03/04 07:26:48;;;;;;;20.23;14.23;;;;;;;3.22;55.32;152190.81;5084728;28;20452;-79
2022/03/04 07:29:23;;;;;;;18.80;14.10;;;;;;;3.28;54.45;152207.56;5072430;28;20458;-79
2022/03/04 07:31:59;;;;;;;23.10;16.50;;;;;;;3.34;54.17;152221.66;5054097;28;20518;-80
2022/03/04 07:34:36;;;;;;;21.87;16.87;;;;;;;3.30;53.84;152211.41;5088660;28;20831;-80
2022/03/04 07:37:12;;;;;;;21.27;15.93;;;;;;;3.26;53.89;152202.38;5068311;28;20560;-80
2022/03/04 07:39:48;;;;;;;19.07;15.30;;;;;;;3.34;53.32;152221.66;5048830;28;20465;-80
2022/03/04 07:42:23;;;;;;;22.47;17.07;;;;;;;3.33;53.39;152219.13;5054915;28;20501;-80
2022/03/04 07:44:59;;;;;;;23.87;14.57;;;;;;;3.35;53.84;152224.25;5072208;28;20452;-79
2022/03/04 07:47:35;;;;;;;22.10;16.50;;;;;;;3.59;53.31;152286.03;5070889;28;20494;-80
2022/03/04 07:50:14;;;;;;;21.43;14.90;;;;;;;3.75;51.96;152325.94;5073208;28;20871;-80
2022/03/04 07:52:49;;;;;;;23.40;15.33;;;;;;;3.89;51.90;152362.00;5067057;28;20444;-80
2022/03/04 07:55:26;;;;;;;20.73;15.30;;;;;;;4.09;51.22;152413.50;5081535;28;20813;-80
2022/03/04 07:58:02;;;;;;;23.43;16.70;;;;;;;4.27;51.43;152461.16;5071310;28;20456;-80
2022/03/04 08:00:37;;;;;;;21.10;15.00;;;;;;;4.54;50.51;152529.44;5070056;28;20523;-80
2022/03/04 08:03:13;;;;;;;23.80;15.20;;;;;;;4.51;49.91;152521.69;5064701;28;20454;-80
2022/03/04 08:05:50;;;;;;;21.93;15.00;;;;;;;4.87;49.91;152614.47;5061556;28;20951;-80
2022/03/04 08:08:25;;;;;;;16.00;13.73;;;;;;;5.04;49.41;152655.69;5089492;28;20449;-80
2022/03/04 08:11:02;;;;;;;22.60;16.27;;;;;;;5.01;49.72;152649.25;5084548;28;20456;-81
2022/03/04 08:13:38;;;;;;;25.27;17.37;;;;;;;5.05;49.53;152659.59;5070649;28;20544;-80
2022/03/04 08:16:14;;;;;;;18.97;15.40;;;;;;;5.41;48.38;152751.09;5068455;28;21006;-80
2022/03/04 08:18:49;;;;;;;21.37;16.30;;;;;;;5.43;48.65;152756.25;5051092;28;20488;-80
2022/03/04 08:21:26;;;;;;;24.43;14.87;;;;;;;5.37;47.84;152740.81;5068435;28;20988;-80
2022/03/04 08:24:02;;;;;;;23.40;15.63;;;;;;;5.61;48.37;152801.41;5071722;28;20816;-80
2022/03/04 08:26:41;;;;;;;18.80;14.57;;;;;;;5.75;47.67;152838.78;5067694;28;20433;-80
2022/03/04 08:29:17;;;;;;;24.70;17.27;;;;;;;5.52;47.89;152780.78;5065787;28;20449;-81
2022/03/04 08:31:53;;;;;;;21.13;16.10;;;;;;;5.09;48.23;152668.59;5068077;28;20562;-80
2022/03/04 08:34:28;;;;;;;24.80;16.27;;;;;;;5.22;49.09;152702.09;5061603;28;20453;-80
2022/03/04 08:37:05;;;;;;;23.30;16.43;;;;;;;5.12;48.76;152677.63;5069145;28;20993;-80
2022/03/04 08:39:41;;;;;;;26.13;16.47;;;;;;;5.19;48.98;152694.41;5047491;28;20453;-80
2022/03/04 08:42:17;;;;;;;22.50;17.57;;;;;;;5.21;48.55;152700.84;5086421;28;20924;-81
2022/03/04 08:44:54;;;;;;;24.67;18.13;;;;;;;4.84;48.53;152605.47;5068481;28;20456;-81
2022/03/04 08:47:29;;;;;;;29.90;16.70;;;;;;;4.72;49.50;152575.81;5065564;28;20805;-81
2022/03/04 08:50:06;;;;;;;24.00;16.90;;;;;;;4.86;47.70;152611.91;5046262;28;20828;-80
2022/03/04 08:52:43;;;;;;;22.07;16.17;;;;;;;4.61;48.91;152547.47;5049444;28;20465;-81
2022/03/04 08:55:19;;;;;;;21.87;15.53;;;;;;;4.76;48.65;152584.84;5062553;28;20447;-80
2022/03/04 08:57:54;;;;;;;22.37;16.83;;;;;;;4.81;48.62;152599.03;5065073;28;20844;-81
2022/03/04 09:00:32;;;;;;;21.93;16.33;;;;;;;4.72;49.75;152575.81;5059542;28;20537;-81
2022/03/04 09:03:08;;;;;;;20.40;15.43;;;;;;;5.15;48.48;152685.38;5049493;28;21003;-81
2022/03/04 09:05:44;;;;;;;20.50;15.20;;;;;;;5.01;48.29;152647.97;5061561;28;20968;-81
2022/03/04 09:08:21;;;;;;;25.60;17.30;;;;;;;4.79;48.76;152593.84;5058954;28;20458;-81
2022/03/04 09:10:57;;;;;;;22.67;16.80;;;;;;;4.65;49.19;152557.78;5059103;28;20541;-80
2022/03/04 09:13:33;;;;;;;26.17;17.90;;;;;;;4.54;49.92;152528.13;5045362;28;20454;-80
2022/03/04 09:16:09;;;;;;;20.17;15.23;;;;;;;4.69;48.93;152568.06;5063033;28;20791;-81
2022/03/04 09:18:45;;;;;;;22.10;16.90;;;;;;;5.03;46.31;152653.16;5062463;28;20550;-80
2022/03/04 09:21:20;;;;;;;23.13;17.00;;;;;;;4.83;46.65;152604.16;5056694;28;20454;-80
2022/03/04 09:23:57;;;;;;;18.27;14.20;;;;;;;5.02;46.62;152650.56;5061078;28;20783;-80
2022/03/04 09:26:34;;;;;;;24.27;15.87;;;;;;;5.11;46.09;152673.78;5043266;28;20454;-80
2022/03/04 09:29:09;;;;;;;25.83;16.90;;;;;;;4.96;46.97;152635.06;5064689;28;20442;-79
2022/03/04 09:31:45;;;;;;;21.10;16.20;;;;;;;4.89;46.69;152618.34;5063804;28;20984;-79
2022/03/04 09:34:20;;;;;;;20.10;15.53;;;;;;;4.86;46.65;152610.63;5042608;28;20486;-79
2022/03/04 09:36:56;;;;;;;22.47;16.53;;;;;;;5.14;47.12;152682.78;5062598;28;20446;-79
2022/03/04 09:39:33;;;;;;;23.47;17.93;;;;;;;4.64;47.77;152555.19;5063706;28;20931;-78
2022/03/04 09:42:09;;;;;;;21.83;16.50;;;;;;;4.95;47.13;152632.53;5059220;28;20792;-78
2022/03/04 09:44:44;;;;;;;22.03;15.70;;;;;;;4.69;46.24;152568.06;5078180;28;20441;-80
2022/03/04 09:47:22;;;;;;;23.13;16.73;;;;;;;4.68;45.95;152565.53;5049544;28;20446;-79
2022/03/04 09:49:59;;;;;;;27.77;17.10;;;;;;;4.77;47.18;152587.41;5057694;28;20473;-79
2022/03/04 09:52:34;;;;;;;20.77;15.40;;;;;;;4.59;47.50;152542.31;5049075;28;20893;-79
2022/03/04 09:55:11;;;;;;;19.67;15.30;;;;;;;4.60;46.16;152544.91;5064356;28;20534;-79
2022/03/04 09:57:47;;;;;;;20.20;14.87;;;;;;;4.79;43.48;152592.59;5044875;28;20860;-80
2022/03/04 10:00:23;;;;;;;18.63;14.30;;;;;;;4.48;43.42;152513.97;5060678;28;20442;-79
2022/03/04 10:02:59;;;;;;;23.80;16.63;;;;;;;4.85;45.93;152609.31;5063456;28;20703;-79
2022/03/04 10:05:34;;;;;;;22.23;15.50;;;;;;;4.89;45.55;152619.66;5065667;28;20783;-79
2022/03/04 10:08:19;;;;;;;20.13;15.33;;;;;;;4.79;45.17;152593.84;5064750;28;20750;-79
2022/03/04 10:10:58;;;;;;;21.90;16.93;;;;;;;4.90;45.42;152622.19;5063296;28;20536;-79
2022/03/04 10:13:45;;;;;;;25.83;14.63;;;;;;;4.76;44.53;152584.84;5048965;28;20449;-79
2022/03/04 10:16:28;;;;;;;21.93;15.07;;;;;;;4.93;45.44;152628.63;5064305;28;20442;-78
2022/03/04 10:19:10;;;;;;;22.90;15.20;;;;;;;4.93;44.79;152629.94;5071235;28;20549;-80
2022/03/04 10:21:47;;;;;;;22.30;14.90;;;;;;;5.18;44.41;152693.09;5060877;28;20525;-79
2022/03/04 10:24:24;;;;;;;20.20;14.63;;;;;;;5.21;43.36;152699.56;5074520;28;20552;-79
2022/03/04 10:27:04;;;;;;;21.10;14.47;;;;;;;5.30;43.58;152722.72;5064728;28;20447;-80
2022/03/04 10:29:41;;;;;;;21.60;15.57;;;;;;;5.35;43.74;152736.91;5064535;28;20549;-79
2022/03/04 10:32:19;;;;;;;20.40;14.60;;;;;;;5.12;43.55;152676.31;5064040;28;20523;-79
2022/03/04 10:34:55;;;;;;;19.97;14.70;;;;;;;5.06;43.99;152660.84;5045201;28;20549;-81
2022/03/04 10:37:42;;;;;;;22.57;16.60;;;;;;;5.25;45.14;152709.84;5061066;28;20541;-80
2022/03/04 10:40:20;;;;;;;21.37;15.70;;;;;;;5.02;43.86;152650.56;5062285;28;20858;-80
2022/03/04 10:42:59;;;;;;;23.73;16.27;;;;;;;4.92;43.77;152627.34;5067643;28;20465;-80
2022/03/04 10:45:36;;;;;;;22.87;15.63;;;;;;;5.07;43.60;152663.44;5056971;28;20445;-80
2022/03/04 10:48:14;;;;;;;22.10;14.30;;;;;;;5.18;43.53;152693.09;5058641;28;20448;-80
2022/03/04 10:50:51;;;;;;;20.90;14.70;;;;;;;5.33;42.94;152731.78;5079389;28;20925;-80
2022/03/04 10:53:27;;;;;;;24.20;16.00;;;;;;;5.04;42.99;152657.00;5063969;28;20813;-79
2022/03/04 10:56:05;;;;;;;20.47;16.07;;;;;;;4.89;44.73;152618.34;5063091;28;20454;-80
2022/03/04 10:58:42;;;;;;;20.83;15.70;;;;;;;4.86;44.39;152611.91;5064727;28;20442;-78
2022/03/04 11:01:19;;;;;;;23.77;16.40;;;;;;;4.97;44.39;152637.69;5064179;28;20454;-79
2022/03/04 11:03:55;;;;;;;23.83;17.37;;;;;;;5.00;43.73;152645.41;5060800;28;20457;-79
2022/03/04 11:06:30;;;;;;;24.13;17.37;;;;;;;5.23;44.87;152706.00;5057105;28;20441;-79
2022/03/04 11:09:06;;;;;;;23.00;16.17;;;;;;;5.11;43.67;152675.03;5063206;28;20480;-79
2022/03/04 11:11:43;;;;;;;22.90;14.67;;;;;;;5.33;43.04;152730.47;5044208;28;20511;-79
2022/03/04 11:14:22;;;;;;;19.83;14.60;;;;;;;5.27;42.25;152715.03;5062860;28;20450;-79
2022/03/04 11:16:57;;;;;;;23.40;15.97;;;;;;;5.16;43.30;152687.97;5062365;28;20545;-79
2022/03/04 11:19:35;;;;;;;20.00;14.17;;;;;;;5.31;42.94;152726.63;5064917;28;20489;-79
2022/03/04 11:22:11;;;;;;;26.13;17.10;;;;;;;5.41;43.18;152751.09;5064197;28;20446;-80
2022/03/04 11:24:47;;;;;;;24.07;16.80;;;;;;;5.28;43.99;152718.88;5054394;28;20453;-80
2022/03/04 11:27:24;;;;;;;23.77;17.03;;;;;;;5.41;43.96;152751.09;5058771;28;20871;-80
2022/03/04 11:30:02;;;;;;;23.60;17.10;;;;;;;5.40;43.29;152749.81;5055307;28;20843;-80
2022/03/04 11:32:37;;;;;;;22.93;16.73;;;;;;;5.50;43.23;152775.63;5059274;28;20670;-79
2022/03/04 11:35:13;;;;;;;27.37;17.33;;;;;;;5.52;43.51;152779.47;5044213;28;20516;-80
2022/03/04 11:37:50;;;;;;;24.30;17.97;;;;;;;5.52;43.96;152780.78;5060450;28;20457;-80
2022/03/04 11:40:35;;;;;;;22.80;16.07;;;;;;;5.66;43.58;152815.59;5066058;28;20537;-80
2022/03/04 11:43:16;;;;;;;20.63;14.93;;;;;;;5.80;42.87;152851.66;5062121;28;20964;-80
2022/03/04 11:46:03;;;;;;;21.93;15.13;;;;;;;5.76;42.72;152841.38;5049996;28;20451;-80
2022/03/04 11:48:38;;;;;;;22.30;16.03;;;;;;;5.62;42.02;152805.25;5066165;28;20544;-79
2022/03/04 11:51:20;;;;;;;19.97;14.77;;;;;;;5.63;42.71;152806.56;5051965;28;20875;-79
2022/03/04 11:54:26;;;;;;;23.67;15.80;;;;;;;5.74;43.44;152836.22;5067135;28;20525;-80
2022/03/04 11:57:15;;;;;;;22.17;16.10;;;;;;;5.84;41.72;152862.00;5065899;28;20441;-80
2022/03/04 11:59:51;;;;;;;22.40;16.17;;;;;;;5.67;42.86;152818.16;5070729;28;20441;-79